createdAt,value
2023-04-18T00:00:02.219Z,10
2023-04-18T00:01:02.078Z,10
2023-04-18T00:02:02.200Z,9.8
2023-04-18T00:03:04.278Z,10
2023-04-18T00:04:02.025Z,9.9
2023-04-18T00:05:01.803Z,9.9
2023-04-18T00:06:01.988Z,9.8
2023-04-18T00:07:01.964Z,9.9
2023-04-18T00:08:01.983Z,9.9
2023-04-18T00:09:01.875Z,9.8
2023-04-18T00:10:01.826Z,9.8
2023-04-18T00:11:01.860Z,9.8
2023-04-18T00:12:01.702Z,10
2023-04-18T00:13:01.697Z,9.8
2023-04-18T00:14:01.612Z,9.8
2023-04-18T00:15:01.681Z,9.8
2023-04-18T00:16:01.523Z,9.7
2023-04-18T00:17:01.342Z,9.7
2023-04-18T00:18:01.465Z,9.8
2023-04-18T00:19:02.314Z,9.9
2023-04-18T00:20:02.207Z,9.9
2023-04-18T00:21:02.281Z,9.9
2023-04-18T00:22:02.145Z,9.9
2023-04-18T00:23:02.208Z,9.8
2023-04-18T00:24:02.085Z,9.9
2023-04-18T00:25:02.171Z,9.9
2023-04-18T00:26:02.014Z,9.8
2023-04-18T00:27:02.013Z,9.8
2023-04-18T00:28:01.969Z,9.8
2023-04-18T00:29:01.849Z,9.8
2023-04-18T00:30:01.859Z,9.7
2023-04-18T00:31:01.765Z,9.7
2023-04-18T00:32:01.717Z,9.7
2023-04-18T00:33:01.748Z,9.7
2023-04-18T00:34:01.585Z,9.8
2023-04-18T00:35:01.613Z,9.7
2023-04-18T00:36:01.488Z,9.9
2023-04-18T00:37:01.535Z,9.7
2023-04-18T00:38:01.370Z,9.7
2023-04-18T00:39:01.424Z,9.7
2023-04-18T00:40:02.333Z,9.8
2023-04-18T00:41:02.223Z,9.8
2023-04-18T00:42:02.241Z,9.7
2023-04-18T00:43:02.163Z,9.7
2023-04-18T00:44:02.154Z,9.8
2023-04-18T00:45:02.105Z,9.8
2023-04-18T00:46:02.121Z,9.8
2023-04-18T00:47:02.264Z,9.8
2023-04-18T00:48:02.258Z,9.9
2023-04-18T00:49:02.110Z,9.8
2023-04-18T00:50:02.005Z,9.9
2023-04-18T00:51:02.066Z,9.6
2023-04-18T00:52:01.940Z,9.7
2023-04-18T00:53:01.853Z,9.7
2023-04-18T00:54:01.874Z,9.7
2023-04-18T00:55:01.774Z,9.7
2023-04-18T00:56:01.697Z,9.8
2023-04-18T00:57:01.785Z,9.6
2023-04-18T00:58:01.640Z,9.7
2023-04-18T00:59:01.683Z,9.8
2023-04-18T01:00:03.063Z,9.7
2023-04-18T01:01:01.897Z,9.7
2023-04-18T01:02:01.436Z,9.6
2023-04-18T01:03:01.558Z,9.8
2023-04-18T01:04:02.103Z,9.8
2023-04-18T01:05:02.176Z,9.8
2023-04-18T01:06:02.224Z,9.8
2023-04-18T01:07:02.091Z,9.9
2023-04-18T01:08:02.148Z,9.9
2023-04-18T01:09:01.991Z,9.8
2023-04-18T01:10:02.035Z,9.7
2023-04-18T01:11:01.934Z,9.7
2023-04-18T01:12:01.898Z,9.7
2023-04-18T01:13:01.894Z,9.8
2023-04-18T01:14:01.763Z,9.8
2023-04-18T01:15:01.838Z,9.7
2023-04-18T01:16:01.684Z,9.7
2023-04-18T01:17:01.716Z,9.7
2023-04-18T01:18:01.871Z,9.6
2023-04-18T01:19:01.710Z,9.7
2023-04-18T01:20:01.747Z,9.8
2023-04-18T01:21:01.606Z,9.6
2023-04-18T01:22:01.601Z,9.7
2023-04-18T01:23:01.490Z,9.7
2023-04-18T01:24:01.555Z,9.7
2023-04-18T01:25:01.373Z,9.8
2023-04-18T01:26:01.423Z,9.8
2023-04-18T01:27:02.324Z,9.9
2023-04-18T01:28:02.274Z,9.9
2023-04-18T01:29:02.309Z,9.9
2023-04-18T01:30:02.271Z,9.8
2023-04-18T01:31:02.167Z,9.9
2023-04-18T01:32:02.150Z,9.8
2023-04-18T01:33:02.282Z,9.7
2023-04-18T01:34:02.127Z,9.8
2023-04-18T01:35:02.234Z,9.8
2023-04-18T01:36:02.161Z,9.7
2023-04-18T01:37:02.241Z,9.7
2023-04-18T01:38:02.048Z,9.8
2023-04-18T01:39:02.114Z,9.8
2023-04-18T01:40:01.961Z,9.8
2023-04-18T01:41:01.932Z,9.7
2023-04-18T01:42:01.921Z,9.9
2023-04-18T01:43:01.840Z,9.7
2023-04-18T01:44:01.768Z,9.7
2023-04-18T01:45:01.821Z,9.8
2023-04-18T01:46:01.672Z,9.8
2023-04-18T01:47:01.678Z,9.9
2023-04-18T01:48:01.888Z,9.9
2023-04-18T01:49:01.811Z,9.8
2023-04-18T01:50:01.872Z,9.8
2023-04-18T01:51:01.723Z,9.7
2023-04-18T01:52:01.711Z,9.9
2023-04-18T01:53:01.728Z,9.9
2023-04-18T01:54:01.585Z,9.8
2023-04-18T01:55:01.672Z,9.8
2023-04-18T01:56:01.462Z,9.8
2023-04-18T01:57:01.510Z,9.9
2023-04-18T01:58:01.420Z,9.8
2023-04-18T01:59:01.439Z,9.7
2023-04-18T02:00:02.856Z,9.8
2023-04-18T02:01:01.813Z,9.7
2023-04-18T02:02:02.246Z,9.8
2023-04-18T02:03:02.455Z,9.7
2023-04-18T02:04:01.641Z,9.7
2023-04-18T02:05:01.598Z,9.8
2023-04-18T02:06:01.561Z,9.7
2023-04-18T02:07:01.482Z,9.8
2023-04-18T02:08:01.394Z,9.9
2023-04-18T02:09:01.441Z,9.8
2023-04-18T02:10:01.236Z,9.9
2023-04-18T02:11:02.302Z,9.8
2023-04-18T02:12:02.226Z,9.7
2023-04-18T02:13:02.225Z,9.8
2023-04-18T02:14:02.161Z,9.8
2023-04-18T02:15:02.169Z,9.7
2023-04-18T02:16:02.055Z,9.8
2023-04-18T02:17:01.995Z,9.8
2023-04-18T02:18:02.164Z,9.8
2023-04-18T02:19:02.204Z,9.7
2023-04-18T02:20:02.101Z,9.8
2023-04-18T02:21:02.088Z,9.8
2023-04-18T02:22:02.012Z,9.7
2023-04-18T02:23:01.950Z,9.7
2023-04-18T02:24:02.020Z,9.8
2023-04-18T02:25:01.806Z,9.8
2023-04-18T02:26:01.739Z,9.8
2023-04-18T02:27:01.790Z,9.7
2023-04-18T02:28:01.653Z,9.8
2023-04-18T02:29:01.737Z,9.8
2023-04-18T02:30:01.612Z,9.8
2023-04-18T02:31:01.622Z,9.8
2023-04-18T02:32:01.322Z,9.8
2023-04-18T02:33:02.398Z,9.7
2023-04-18T02:34:02.214Z,9.8
2023-04-18T02:35:02.264Z,9.8
2023-04-18T02:36:02.183Z,9.7
2023-04-18T02:37:02.146Z,9.8
2023-04-18T02:38:02.152Z,9.8
2023-04-18T02:39:02.078Z,9.8
2023-04-18T02:40:01.939Z,9.8
2023-04-18T02:41:01.948Z,9.7
2023-04-18T02:42:01.991Z,9.8
2023-04-18T02:43:01.832Z,9.7
2023-04-18T02:44:01.792Z,9.6
2023-04-18T02:45:01.857Z,9.5
2023-04-18T02:46:01.702Z,9.6
2023-04-18T02:47:01.681Z,9.7
2023-04-18T02:48:01.670Z,9.6
2023-04-18T02:49:01.481Z,9.7
2023-04-18T02:50:01.510Z,9.6
2023-04-18T02:51:01.375Z,9.6
2023-04-18T02:52:01.437Z,9.7
2023-04-18T02:53:02.384Z,9.8
2023-04-18T02:54:02.279Z,9.6
2023-04-18T02:55:02.341Z,9.6
2023-04-18T02:56:02.215Z,9.6
2023-04-18T02:57:02.264Z,9.6
2023-04-18T02:58:02.156Z,9.7
2023-04-18T02:59:02.171Z,9.7
2023-04-18T03:00:02.468Z,9.6
2023-04-18T03:01:01.529Z,9.6
2023-04-18T03:02:01.855Z,9.7
2023-04-18T03:03:01.878Z,9.6
2023-04-18T03:04:02.076Z,9.7
2023-04-18T03:05:02.023Z,9.8
2023-04-18T03:06:02.042Z,9.7
2023-04-18T03:07:02.089Z,9.7
2023-04-18T03:08:02.014Z,9.7
2023-04-18T03:09:01.874Z,9.8
2023-04-18T03:10:01.992Z,9.8
2023-04-18T03:11:01.786Z,9.8
2023-04-18T03:12:01.734Z,9.8
2023-04-18T03:13:01.783Z,9.8
2023-04-18T03:14:01.629Z,9.7
2023-04-18T03:15:01.637Z,9.8
2023-04-18T03:16:01.511Z,9.7
2023-04-18T03:17:01.522Z,9.8
2023-04-18T03:18:01.605Z,9.8
2023-04-18T03:19:01.528Z,9.8
2023-04-18T03:20:01.498Z,9.9
2023-04-18T03:21:01.367Z,9.7
2023-04-18T03:22:01.409Z,9.7
2023-04-18T03:23:02.327Z,9.8
2023-04-18T03:24:02.332Z,9.9
2023-04-18T03:25:02.301Z,9.9
2023-04-18T03:26:02.230Z,9.8
2023-04-18T03:27:02.277Z,9.8
2023-04-18T03:28:02.140Z,9.8
2023-04-18T03:29:02.193Z,9.7
2023-04-18T03:30:02.085Z,9.7
2023-04-18T03:31:02.245Z,9.8
2023-04-18T03:32:01.288Z,9.7
2023-04-18T03:33:02.385Z,9.7
2023-04-18T03:34:01.491Z,9.8
2023-04-18T03:35:01.471Z,9.7
2023-04-18T03:36:01.344Z,9.8
2023-04-18T03:37:01.369Z,9.8
2023-04-18T03:38:02.379Z,9.7
2023-04-18T03:39:02.301Z,9.6
2023-04-18T03:40:02.337Z,9.7
2023-04-18T03:41:02.223Z,9.7
2023-04-18T03:42:02.247Z,9.7
2023-04-18T03:43:02.151Z,9.6
2023-04-18T03:44:02.177Z,9.8
2023-04-18T03:45:02.129Z,9.7
2023-04-18T03:46:02.253Z,9.7
2023-04-18T03:47:01.305Z,9.7
2023-04-18T03:48:02.426Z,9.8
2023-04-18T03:49:02.241Z,9.7
2023-04-18T03:50:02.324Z,9.7
2023-04-18T03:51:02.253Z,9.7
2023-04-18T03:52:02.269Z,9.6
2023-04-18T03:53:02.142Z,9.7
2023-04-18T03:54:02.195Z,9.7
2023-04-18T03:55:02.033Z,9.7
2023-04-18T03:56:02.088Z,9.7
2023-04-18T03:57:02.067Z,9.8
2023-04-18T03:58:01.893Z,9.7
2023-04-18T03:59:01.954Z,9.7
2023-04-18T04:00:02.691Z,9.8
2023-04-18T04:01:01.615Z,9.7
2023-04-18T04:02:01.983Z,9.7
2023-04-18T04:03:02.191Z,9.6
2023-04-18T04:04:02.428Z,9.7
2023-04-18T04:05:01.579Z,9.7
2023-04-18T04:06:01.702Z,9.7
2023-04-18T04:07:01.503Z,9.7
2023-04-18T04:08:01.494Z,9.8
2023-04-18T04:09:01.451Z,9.7
2023-04-18T04:10:01.476Z,9.7
2023-04-18T04:11:01.345Z,9.6
2023-04-18T04:12:01.437Z,9.8
2023-04-18T04:13:02.383Z,9.8
2023-04-18T04:14:02.246Z,9.8
2023-04-18T04:15:02.336Z,9.8
2023-04-18T04:16:02.228Z,9.7
2023-04-18T04:17:01.388Z,9.7
2023-04-18T04:18:01.466Z,9.7
2023-04-18T04:19:01.409Z,9.8
2023-04-18T04:20:02.364Z,9.7
2023-04-18T04:21:02.276Z,9.7
2023-04-18T04:22:02.412Z,9.8
2023-04-18T04:23:02.231Z,9.8
2023-04-18T04:24:02.246Z,9.8
2023-04-18T04:25:02.166Z,9.8
2023-04-18T04:26:02.290Z,9.7
2023-04-18T04:27:01.909Z,9.7
2023-04-18T04:28:01.908Z,9.9
2023-04-18T04:29:01.765Z,9.7
2023-04-18T04:30:01.786Z,9.8
2023-04-18T04:31:01.689Z,9.8
2023-04-18T04:32:01.902Z,9.7
2023-04-18T04:33:02.064Z,9.7
2023-04-18T04:34:01.869Z,9.7
2023-04-18T04:35:01.823Z,9.7
2023-04-18T04:36:01.810Z,9.6
2023-04-18T04:37:01.713Z,9.7
2023-04-18T04:38:01.786Z,9.7
2023-04-18T04:39:01.620Z,9.7
2023-04-18T04:40:01.558Z,9.7
2023-04-18T04:41:01.430Z,9.7
2023-04-18T04:42:01.409Z,9.8
2023-04-18T04:43:01.301Z,9.8
2023-04-18T04:44:02.376Z,9.8
2023-04-18T04:45:02.289Z,9.7
2023-04-18T04:46:02.335Z,9.7
2023-04-18T04:47:02.142Z,9.8
2023-04-18T04:48:02.293Z,9.8
2023-04-18T04:49:02.074Z,9.8
2023-04-18T04:50:02.131Z,9.8
2023-04-18T04:51:01.983Z,9.7
2023-04-18T04:52:02.132Z,9.8
2023-04-18T04:53:02.002Z,9.8
2023-04-18T04:54:01.858Z,9.8
2023-04-18T04:55:01.796Z,9.8
2023-04-18T04:56:01.831Z,9.8
2023-04-18T04:57:01.691Z,9.8
2023-04-18T04:58:01.764Z,9.8
2023-04-18T04:59:01.602Z,9.9
2023-04-18T05:00:02.307Z,9.9
2023-04-18T05:01:02.238Z,9.8
2023-04-18T05:02:01.689Z,9.9
2023-04-18T05:03:01.787Z,9.9
2023-04-18T05:04:01.449Z,9.9
2023-04-18T05:05:01.670Z,9.9
2023-04-18T05:06:01.460Z,9.9
2023-04-18T05:07:01.517Z,9.9
2023-04-18T05:08:01.368Z,10
2023-04-18T05:09:01.440Z,10.1
2023-04-18T05:10:01.290Z,9.9
2023-04-18T05:11:02.351Z,10.1
2023-04-18T05:12:02.240Z,10.1
2023-04-18T05:13:02.272Z,10
2023-04-18T05:14:02.365Z,10
2023-04-18T05:15:02.294Z,9.9
2023-04-18T05:16:02.254Z,10
2023-04-18T05:17:02.314Z,10.1
2023-04-18T05:18:02.410Z,10
2023-04-18T05:19:01.370Z,10
2023-04-18T05:20:01.327Z,10
2023-04-18T05:21:02.286Z,10.1
2023-04-18T05:22:02.205Z,10
2023-04-18T05:23:02.228Z,10.1
2023-04-18T05:24:02.171Z,10
2023-04-18T05:25:02.280Z,10
2023-04-18T05:26:02.114Z,10.1
2023-04-18T05:27:02.246Z,10
2023-04-18T05:28:02.140Z,10.2
2023-04-18T05:29:02.296Z,10.2
2023-04-18T05:30:02.217Z,10.1
2023-04-18T05:31:02.286Z,10.1
2023-04-18T05:32:02.185Z,10.2
2023-04-18T05:33:02.418Z,10.3
2023-04-18T05:34:02.212Z,10.2
2023-04-18T05:35:02.301Z,10.1
2023-04-18T05:36:02.238Z,10.2
2023-04-18T05:37:02.300Z,10.1
2023-04-18T05:38:02.182Z,10.2
2023-04-18T05:39:02.261Z,10.2
2023-04-18T05:40:02.179Z,10.1
2023-04-18T05:41:02.265Z,10.2
2023-04-18T05:42:02.159Z,10.3
2023-04-18T05:43:02.224Z,10.2
2023-04-18T05:44:05.579Z,10.2
2023-04-18T05:45:01.682Z,10.2
2023-04-18T05:46:01.724Z,10.3
2023-04-18T05:47:01.604Z,10.3
2023-04-18T05:48:01.828Z,10.4
2023-04-18T05:49:01.801Z,10.3
2023-04-18T05:50:01.646Z,10.3
2023-04-18T05:51:01.682Z,10.3
2023-04-18T05:52:01.538Z,10.5
2023-04-18T05:53:01.597Z,10.3
2023-04-18T05:54:01.487Z,10.4
2023-04-18T05:55:01.493Z,10.4
2023-04-18T05:56:01.371Z,10.5
2023-04-18T05:57:02.601Z,10.5
2023-04-18T05:58:01.336Z,10.5
2023-04-18T05:59:01.365Z,10.5
2023-04-18T06:00:03.160Z,10.6
2023-04-18T06:01:02.077Z,10.6
2023-04-18T06:02:02.223Z,10.6
2023-04-18T06:03:02.422Z,10.7
2023-04-18T06:04:01.911Z,10.8
2023-04-18T06:05:02.252Z,10.6
2023-04-18T06:06:01.785Z,10.7
2023-04-18T06:07:01.886Z,10.6
2023-04-18T06:08:01.878Z,10.7
2023-04-18T06:09:01.752Z,10.7
2023-04-18T06:10:01.944Z,10.6
2023-04-18T06:11:01.657Z,10.7
2023-04-18T06:12:01.697Z,10.8
2023-04-18T06:13:01.565Z,10.8
2023-04-18T06:14:01.631Z,10.8
2023-04-18T06:15:01.479Z,10.8
2023-04-18T06:16:01.552Z,10.8
2023-04-18T06:17:02.368Z,11
2023-04-18T06:18:02.233Z,11
2023-04-18T06:19:02.297Z,10.9
2023-04-18T06:20:02.141Z,11.1
2023-04-18T06:21:02.221Z,11.1
2023-04-18T06:22:02.157Z,11.1
2023-04-18T06:23:02.306Z,11.1
2023-04-18T06:24:02.149Z,11
2023-04-18T06:25:02.214Z,11
2023-04-18T06:26:02.078Z,11
2023-04-18T06:27:02.139Z,11
2023-04-18T06:28:02.106Z,11.1
2023-04-18T06:29:02.190Z,11.2
2023-04-18T06:30:02.122Z,11.3
2023-04-18T06:31:02.231Z,11.5
2023-04-18T06:32:02.108Z,11.2
2023-04-18T06:33:02.189Z,11.4
2023-04-18T06:34:02.039Z,11.5
2023-04-18T06:35:02.065Z,11.5
2023-04-18T06:36:02.120Z,11.3
2023-04-18T06:37:01.972Z,11.4
2023-04-18T06:38:01.925Z,11.2
2023-04-18T06:39:02.002Z,11.3
2023-04-18T06:40:01.855Z,11.4
2023-04-18T06:41:01.810Z,11.5
2023-04-18T06:42:01.877Z,11.4
2023-04-18T06:43:02.816Z,11.5
2023-04-18T06:44:03.191Z,11.3
2023-04-18T06:45:01.513Z,11.3
2023-04-18T06:46:01.580Z,11.3
2023-04-18T06:47:01.439Z,11.4
2023-04-18T06:48:01.502Z,11.5
2023-04-18T06:49:01.361Z,11.3
2023-04-18T06:50:01.301Z,11.4
2023-04-18T06:51:02.329Z,11.5
2023-04-18T06:52:02.199Z,11.5
2023-04-18T06:53:02.268Z,11.6
2023-04-18T06:54:02.193Z,11.4
2023-04-18T06:55:02.263Z,11.5
2023-04-18T06:56:02.117Z,11.6
2023-04-18T06:57:02.207Z,11.6
2023-04-18T06:58:02.049Z,11.8
2023-04-18T06:59:02.161Z,11.5
2023-04-18T07:00:02.257Z,11.7
2023-04-18T07:01:02.305Z,11.8
2023-04-18T07:02:01.668Z,11.6
2023-04-18T07:03:01.860Z,11.9
2023-04-18T07:04:02.203Z,11.7
2023-04-18T07:05:01.290Z,11.9
2023-04-18T07:06:01.350Z,11.9
2023-04-18T07:07:01.293Z,12.1
2023-04-18T07:08:01.396Z,12
2023-04-18T07:09:02.330Z,12
2023-04-18T07:10:02.316Z,11.9
2023-04-18T07:11:02.293Z,11.9
2023-04-18T07:12:02.163Z,12.1
2023-04-18T07:13:02.238Z,12.2
2023-04-18T07:14:02.140Z,12.2
2023-04-18T07:15:02.216Z,12.1
2023-04-18T07:16:02.070Z,12
2023-04-18T07:17:01.958Z,12.3
2023-04-18T07:18:01.950Z,12.1
2023-04-18T07:19:01.841Z,12.4
2023-04-18T07:20:01.871Z,12.4
2023-04-18T07:21:01.844Z,12.3
2023-04-18T07:22:01.701Z,12.4
2023-04-18T07:23:01.834Z,12.5
2023-04-18T07:24:01.754Z,12.4
2023-04-18T07:25:01.772Z,12.4
2023-04-18T07:26:01.630Z,12.3
2023-04-18T07:27:01.714Z,12.4
2023-04-18T07:28:01.629Z,12.2
2023-04-18T07:29:01.718Z,12.1
2023-04-18T07:30:01.542Z,12.4
2023-04-18T07:31:01.593Z,12.5
2023-04-18T07:32:01.372Z,12.3
2023-04-18T07:33:01.466Z,12.4
2023-04-18T07:34:01.381Z,12.3
2023-04-18T07:35:02.377Z,12.4
2023-04-18T07:36:02.255Z,12.4
2023-04-18T07:37:02.435Z,12.7
2023-04-18T07:38:02.282Z,12.7
2023-04-18T07:39:02.240Z,12.6
2023-04-18T07:40:02.211Z,12.8
2023-04-18T07:41:02.255Z,12.7
2023-04-18T07:42:02.132Z,12.7
2023-04-18T07:43:02.219Z,12.5
2023-04-18T07:44:02.111Z,12.7
2023-04-18T07:45:02.103Z,12.8
2023-04-18T07:46:01.940Z,12.7
2023-04-18T07:47:01.853Z,12.6
2023-04-18T07:48:01.914Z,12.7
2023-04-18T07:49:01.785Z,12.8
2023-04-18T07:50:01.949Z,12.8
2023-04-18T07:51:01.737Z,12.8
2023-04-18T07:52:01.843Z,12.9
2023-04-18T07:53:01.692Z,12.7
2023-04-18T07:54:01.721Z,12.9
2023-04-18T07:55:01.651Z,13.1
2023-04-18T07:56:01.746Z,13.3
2023-04-18T07:57:01.708Z,13.4
2023-04-18T07:58:01.584Z,12.8
2023-04-18T07:59:01.650Z,12.9
2023-04-18T08:00:02.034Z,13.3
2023-04-18T08:01:01.743Z,13
2023-04-18T08:02:02.274Z,13.1
2023-04-18T08:03:02.481Z,13.1
2023-04-18T08:04:02.004Z,12.9
2023-04-18T08:05:01.563Z,13.3
2023-04-18T08:06:01.511Z,13.2
2023-04-18T08:07:01.569Z,13.3
2023-04-18T08:08:01.461Z,13.1
2023-04-18T08:09:01.373Z,13.2
2023-04-18T08:10:02.373Z,13.3
2023-04-18T08:11:02.260Z,13.5
2023-04-18T08:12:02.327Z,13.8
2023-04-18T08:13:02.189Z,13.5
2023-04-18T08:14:02.230Z,14
2023-04-18T08:15:02.135Z,13.9
2023-04-18T08:16:02.200Z,14.1
2023-04-18T08:17:01.339Z,14
2023-04-18T08:18:01.443Z,14.2
2023-04-18T08:19:01.402Z,14.2
2023-04-18T08:20:01.460Z,14.2
2023-04-18T08:21:01.284Z,13.9
2023-04-18T08:22:02.358Z,14.1
2023-04-18T08:23:07.835Z,13.9
2023-04-18T08:24:01.889Z,14
2023-04-18T08:25:05.230Z,14.3
2023-04-18T08:26:01.526Z,14.2
2023-04-18T08:27:01.552Z,14.4
2023-04-18T08:28:01.408Z,14.5
2023-04-18T08:29:01.469Z,14.3
2023-04-18T08:30:01.269Z,14.5
2023-04-18T08:31:02.331Z,14.4
2023-04-18T08:32:02.250Z,14.9
2023-04-18T08:33:02.434Z,14.5
2023-04-18T08:34:03.115Z,14.6
2023-04-18T08:35:01.871Z,14.7
2023-04-18T08:36:01.884Z,14.6
2023-04-18T08:37:01.753Z,14.8
2023-04-18T08:38:01.826Z,15.1
2023-04-18T08:39:01.707Z,14.8
2023-04-18T08:40:01.715Z,14.9
2023-04-18T08:41:01.540Z,14.8
2023-04-18T08:42:01.586Z,15.2
2023-04-18T08:43:01.421Z,15.3
2023-04-18T08:44:01.445Z,15.5
2023-04-18T08:45:01.281Z,15.1
2023-04-18T08:46:02.372Z,15.5
2023-04-18T08:47:01.297Z,15.2
2023-04-18T08:48:02.386Z,15.1
2023-04-18T08:49:02.268Z,15.3
2023-04-18T08:50:02.280Z,15.7
2023-04-18T08:51:02.305Z,15.3
2023-04-18T08:52:02.294Z,15.7
2023-04-18T08:53:02.176Z,15.8
2023-04-18T08:54:02.239Z,15.3
2023-04-18T08:55:02.105Z,15.4
2023-04-18T08:56:02.171Z,15.4
2023-04-18T08:57:02.033Z,15.2
2023-04-18T08:58:02.083Z,15.5
2023-04-18T08:59:01.974Z,15.7
2023-04-18T09:00:02.876Z,15.3
2023-04-18T09:01:01.896Z,15.5
2023-04-18T09:02:02.060Z,15.1
2023-04-18T09:03:02.042Z,15.1
2023-04-18T09:04:01.502Z,15.3
2023-04-18T09:05:01.423Z,15.4
2023-04-18T09:06:01.335Z,15.1
2023-04-18T09:07:01.335Z,15.2
2023-04-18T09:08:02.286Z,15.1
2023-04-18T09:09:02.289Z,15.3
2023-04-18T09:10:02.314Z,15.7
2023-04-18T09:11:02.217Z,16.2
2023-04-18T09:12:02.250Z,16.3
2023-04-18T09:13:02.095Z,16.6
2023-04-18T09:14:02.115Z,16.4
2023-04-18T09:15:02.055Z,16.2
2023-04-18T09:16:01.945Z,16.4
2023-04-18T09:17:01.982Z,16.2
2023-04-18T09:18:02.096Z,16
2023-04-18T09:19:01.543Z,16.3
2023-04-18T09:20:01.612Z,15.8
2023-04-18T09:21:01.528Z,15.5
2023-04-18T09:22:01.530Z,15.5
2023-04-18T09:23:01.404Z,15.1
2023-04-18T09:24:01.465Z,14.8
2023-04-18T09:25:01.385Z,15
2023-04-18T09:26:01.492Z,15.4
2023-04-18T09:27:01.413Z,15.1
2023-04-18T09:28:01.512Z,15.5
2023-04-18T09:29:01.328Z,15.7
2023-04-18T09:30:01.436Z,15.7
2023-04-18T09:31:01.332Z,15.8
2023-04-18T09:32:01.517Z,15.7
2023-04-18T09:33:01.689Z,15.8
2023-04-18T09:34:01.853Z,15.8
2023-04-18T09:35:03.504Z,15.9
2023-04-18T09:36:01.670Z,15.8
2023-04-18T09:37:01.707Z,15.7
2023-04-18T09:38:01.587Z,15.6
2023-04-18T09:39:01.681Z,15.6
2023-04-18T09:40:01.558Z,15.2
2023-04-18T09:41:01.648Z,15.1
2023-04-18T09:42:01.515Z,15.1
2023-04-18T09:43:01.584Z,15.5
2023-04-18T09:44:01.441Z,15
2023-04-18T09:45:01.530Z,15.4
2023-04-18T09:46:01.454Z,15.9
2023-04-18T09:47:01.423Z,15.7
2023-04-18T09:48:01.488Z,15.9
2023-04-18T09:49:01.442Z,16.2
2023-04-18T09:50:01.313Z,16.2
2023-04-18T09:51:02.337Z,16.3
2023-04-18T09:52:02.200Z,16.8
2023-04-18T09:53:02.312Z,16.4
2023-04-18T09:54:02.179Z,16.4
2023-04-18T09:55:02.195Z,16.4
2023-04-18T09:56:02.052Z,16.1
2023-04-18T09:57:02.128Z,15.9
2023-04-18T09:58:01.973Z,16.3
2023-04-18T09:59:02.280Z,16.6
2023-04-18T10:00:02.696Z,16.9
2023-04-18T10:01:01.595Z,17
2023-04-18T10:02:01.741Z,16.9
2023-04-18T10:03:02.082Z,16.8
2023-04-18T10:04:02.289Z,16.8
2023-04-18T10:05:02.298Z,17.2
2023-04-18T10:06:02.271Z,17
2023-04-18T10:07:02.187Z,16.7
2023-04-18T10:08:02.243Z,17
2023-04-18T10:09:02.098Z,17.5
2023-04-18T10:10:02.218Z,17.7
2023-04-18T10:11:02.024Z,17.9
2023-04-18T10:12:02.099Z,18.3
2023-04-18T10:13:01.960Z,18.2
2023-04-18T10:14:01.912Z,17.6
2023-04-18T10:15:02.011Z,18
2023-04-18T10:16:01.898Z,18.3
2023-04-18T10:17:01.807Z,17.9
2023-04-18T10:18:05.555Z,17.5
2023-04-18T10:19:02.276Z,17.6
2023-04-18T10:20:02.195Z,18.1
2023-04-18T10:21:02.104Z,17.8
2023-04-18T10:22:02.023Z,18.1
2023-04-18T10:23:02.055Z,18
2023-04-18T10:24:02.046Z,17.9
2023-04-18T10:25:01.893Z,18
2023-04-18T10:26:01.778Z,17.7
2023-04-18T10:27:01.856Z,17.3
2023-04-18T10:28:01.773Z,17.6
2023-04-18T10:29:01.733Z,17.3
2023-04-18T10:30:01.640Z,16.9
2023-04-18T10:31:01.760Z,17.7
2023-04-18T10:32:01.522Z,17
2023-04-18T10:33:01.562Z,17.8
2023-04-18T10:34:05.498Z,17.6
2023-04-18T10:35:01.967Z,18.5
2023-04-18T10:36:01.967Z,18.4
2023-04-18T10:37:01.872Z,17.7
2023-04-18T10:38:01.848Z,18.2
2023-04-18T10:39:01.922Z,18.3
2023-04-18T10:40:01.809Z,18.1
2023-04-18T10:41:01.714Z,18.6
2023-04-18T10:42:01.725Z,18.4
2023-04-18T10:43:01.624Z,18.4
2023-04-18T10:44:01.688Z,18.6
2023-04-18T10:45:02.558Z,18.1
2023-04-18T10:46:01.352Z,18.6
2023-04-18T10:47:01.476Z,18.5
2023-04-18T10:48:01.518Z,18.3
2023-04-18T10:49:01.370Z,18.2
2023-04-18T10:50:01.552Z,17.5
2023-04-18T10:51:01.433Z,17.4
2023-04-18T10:52:01.533Z,17.7
2023-04-18T10:53:01.675Z,18.5
2023-04-18T10:54:01.715Z,18.6
2023-04-18T10:55:01.629Z,19
2023-04-18T10:56:01.682Z,19.1
2023-04-18T10:57:01.505Z,20.1
2023-04-18T10:58:01.651Z,19
2023-04-18T10:59:01.408Z,19.1
2023-04-18T11:00:02.733Z,18.9
2023-04-18T11:01:01.697Z,18.3
2023-04-18T11:02:01.358Z,18
2023-04-18T11:03:01.485Z,18
2023-04-18T11:04:01.939Z,17.8
2023-04-18T11:05:02.077Z,17.8
2023-04-18T11:06:02.175Z,17.7
2023-04-18T11:07:02.207Z,18
2023-04-18T11:08:02.091Z,17.7
2023-04-18T11:09:02.157Z,17.7
2023-04-18T11:10:02.088Z,17.1
2023-04-18T11:11:02.109Z,17.3
2023-04-18T11:12:02.277Z,17.5
2023-04-18T11:13:02.240Z,17.1
2023-04-18T11:14:02.114Z,17.4
2023-04-18T11:15:02.069Z,17.4
2023-04-18T11:16:02.031Z,17.9
2023-04-18T11:17:01.989Z,18.4
2023-04-18T11:18:01.930Z,18.4
2023-04-18T11:19:01.935Z,18.9
2023-04-18T11:20:01.796Z,18.6
2023-04-18T11:21:01.739Z,18.5
2023-04-18T11:22:01.766Z,18.7
2023-04-18T11:23:01.627Z,18.4
2023-04-18T11:24:01.694Z,18.2
2023-04-18T11:25:01.529Z,17.6
2023-04-18T11:26:01.561Z,17.5
2023-04-18T11:27:01.413Z,17.2
2023-04-18T11:28:01.474Z,17.4
2023-04-18T11:29:01.328Z,17.8
2023-04-18T11:30:02.340Z,17.2
2023-04-18T11:31:02.167Z,17.6
2023-04-18T11:32:02.146Z,17.6
2023-04-18T11:33:02.110Z,17.7
2023-04-18T11:34:02.279Z,17.3
2023-04-18T11:35:02.101Z,17.7
2023-04-18T11:36:02.108Z,17.8
2023-04-18T11:37:01.968Z,18
2023-04-18T11:38:01.894Z,18.1
2023-04-18T11:39:02.069Z,18.4
2023-04-18T11:40:01.875Z,18.9
2023-04-18T11:41:01.838Z,18.7
2023-04-18T11:42:01.806Z,19.1
2023-04-18T11:43:01.726Z,18.9
2023-04-18T11:44:01.802Z,19.1
2023-04-18T11:45:01.684Z,19.4
2023-04-18T11:46:01.863Z,19.9
2023-04-18T11:47:01.419Z,19.8
2023-04-18T11:48:01.536Z,20.1
2023-04-18T11:49:01.441Z,19.8
2023-04-18T11:50:01.487Z,19.9
2023-04-18T11:51:01.358Z,20.2
2023-04-18T11:52:01.441Z,20.4
2023-04-18T11:53:02.353Z,20.3
2023-04-18T11:54:02.220Z,20.1
2023-04-18T11:55:02.229Z,19.8
2023-04-18T11:56:02.146Z,19.6
2023-04-18T11:57:02.271Z,19.9
2023-04-18T11:58:02.103Z,20.2
2023-04-18T11:59:02.198Z,20.4
2023-04-18T12:00:03.054Z,20.7
2023-04-18T12:01:01.990Z,20.9
2023-04-18T12:02:09.031Z,20.4
2023-04-18T12:03:01.886Z,20.4
2023-04-18T12:04:02.803Z,20
2023-04-18T12:05:02.071Z,19.8
2023-04-18T12:06:02.331Z,19.4
2023-04-18T12:07:01.841Z,19.9
2023-04-18T12:08:01.716Z,20.4
2023-04-18T12:09:01.778Z,19.8
2023-04-18T12:10:01.620Z,20
2023-04-18T12:11:01.687Z,20.2
2023-04-18T12:12:01.536Z,20.3
2023-04-18T12:13:01.565Z,19.9
2023-04-18T12:14:02.980Z,20
2023-04-18T12:15:01.742Z,19.9
2023-04-18T12:16:01.800Z,20.1
2023-04-18T12:17:01.810Z,19.9
2023-04-18T12:18:01.928Z,19.1
2023-04-18T12:19:01.909Z,19.6
2023-04-18T12:20:01.824Z,19.3
2023-04-18T12:21:01.742Z,19.2
2023-04-18T12:22:01.770Z,19.2
2023-04-18T12:23:01.681Z,19.5
2023-04-18T12:24:01.666Z,19.7
2023-04-18T12:25:01.561Z,18.8
2023-04-18T12:26:01.605Z,19.3
2023-04-18T12:27:01.432Z,18.9
2023-04-18T12:28:01.504Z,19.2
2023-04-18T12:29:01.362Z,18.4
2023-04-18T12:30:01.343Z,18.6
2023-04-18T12:31:02.477Z,18.4
2023-04-18T12:32:02.254Z,18.5
2023-04-18T12:33:02.771Z,18.4
2023-04-18T12:34:01.549Z,18.3
2023-04-18T12:35:01.561Z,18.1
2023-04-18T12:36:01.391Z,18.2
2023-04-18T12:37:01.480Z,18
2023-04-18T12:38:01.351Z,17.9
2023-04-18T12:39:01.347Z,18.2
2023-04-18T12:40:02.338Z,18.4
2023-04-18T12:41:02.237Z,18.2
2023-04-18T12:42:02.321Z,18.6
2023-04-18T12:43:03.657Z,18.1
2023-04-18T12:44:01.754Z,18.5
2023-04-18T12:45:01.798Z,18.4
2023-04-18T12:46:01.637Z,18.5
2023-04-18T12:47:01.812Z,18.4
2023-04-18T12:48:01.863Z,18
2023-04-18T12:49:01.808Z,18.4
2023-04-18T12:50:01.787Z,18.7
2023-04-18T12:51:01.812Z,18.8
2023-04-18T12:52:01.735Z,18.4
2023-04-18T12:53:01.603Z,18.7
2023-04-18T12:54:01.684Z,18.8
2023-04-18T12:55:01.509Z,18.7
2023-04-18T12:56:01.567Z,19.1
2023-04-18T12:57:01.400Z,19.2
2023-04-18T12:58:01.440Z,19.1
2023-04-18T12:59:01.277Z,19
2023-04-18T13:00:02.292Z,19.1
2023-04-18T13:01:02.260Z,19.2
2023-04-18T13:02:01.431Z,19.2
2023-04-18T13:03:01.542Z,19.7
2023-04-18T13:04:11.429Z,19.5
2023-04-18T13:05:01.655Z,19.3
2023-04-18T13:06:01.693Z,19.5
2023-04-18T13:07:01.540Z,19.8
2023-04-18T13:09:01.405Z,19
2023-04-18T13:10:01.427Z,18.7
2023-04-18T13:11:01.370Z,18.3
2023-04-18T13:12:02.334Z,18.6
2023-04-18T13:13:02.373Z,18.5
2023-04-18T13:14:02.337Z,18.1
2023-04-18T13:15:02.256Z,17.9
2023-04-18T13:16:02.257Z,18.3
2023-04-18T13:17:02.198Z,18.6
2023-04-18T13:18:02.331Z,18.3
2023-04-18T13:19:01.278Z,18.6
2023-04-18T13:20:02.341Z,18.3
2023-04-18T13:21:02.252Z,18.5
2023-04-18T13:22:02.329Z,18.5
2023-04-18T13:23:02.276Z,18.4
2023-04-18T13:24:02.354Z,18.5
2023-04-18T13:25:02.141Z,18.4
2023-04-18T13:26:02.204Z,18.6
2023-04-18T13:27:02.110Z,18.5
2023-04-18T13:28:02.183Z,18.5
2023-04-18T13:29:02.070Z,19.1
2023-04-18T13:30:02.116Z,18.8
2023-04-18T13:31:01.961Z,18.6
2023-04-18T13:32:02.097Z,18.8
2023-04-18T13:33:02.215Z,19.1